createdAt,value
2022-10-02T00:01:00.998Z,0
2022-10-02T00:02:04.073Z,0
2022-10-02T00:03:07.139Z,0
2022-10-02T00:04:10.224Z,0
2022-10-02T00:05:14.200Z,0
2022-10-02T00:06:17.303Z,0
2022-10-02T00:07:20.449Z,0
2022-10-02T00:08:24.262Z,0
2022-10-02T00:09:27.530Z,0
2022-10-02T00:10:29.821Z,0
2022-10-02T00:11:32.980Z,0
2022-10-02T00:12:34.988Z,0
2022-10-02T00:13:38.055Z,0
2022-10-02T00:14:42.221Z,0
2022-10-02T00:15:45.315Z,0
2022-10-02T00:16:48.504Z,0
2022-10-02T00:17:51.406Z,0
2022-10-02T00:18:55.032Z,0
2022-10-02T00:19:58.261Z,0
2022-10-02T00:21:01.448Z,0
2022-10-02T00:22:05.172Z,0
2022-10-02T00:23:07.714Z,0
2022-10-02T00:24:10.870Z,0
2022-10-02T00:25:13.730Z,0
2022-10-02T00:26:16.631Z,0
2022-10-02T00:27:20.076Z,0
2022-10-02T00:28:23.223Z,0
2022-10-02T00:29:27.399Z,0
2022-10-02T00:30:30.955Z,0
2022-10-02T00:31:33.708Z,0
2022-10-02T00:32:36.730Z,0
2022-10-02T00:33:39.888Z,0
2022-10-02T00:34:42.326Z,0
2022-10-02T00:35:45.042Z,0
2022-10-02T00:36:48.253Z,0
2022-10-02T00:37:50.991Z,0
2022-10-02T00:38:54.338Z,0
2022-10-02T00:39:57.148Z,0
2022-10-02T00:41:00.210Z,0
2022-10-02T00:42:02.632Z,0
2022-10-02T00:43:05.974Z,0
2022-10-02T00:44:08.905Z,0
2022-10-02T00:45:12.714Z,0
2022-10-02T00:46:15.905Z,0
2022-10-02T00:47:19.029Z,0
2022-10-02T00:48:21.905Z,0
2022-10-02T00:49:25.283Z,0
2022-10-02T00:50:28.519Z,0
2022-10-02T00:51:31.592Z,0
2022-10-02T00:52:36.115Z,0
2022-10-02T00:53:38.744Z,0
2022-10-02T00:54:42.479Z,0
2022-10-02T00:55:45.647Z,0
2022-10-02T00:56:49.113Z,0
2022-10-02T00:57:52.186Z,0
2022-10-02T00:58:55.163Z,0
2022-10-02T00:59:58.339Z,0
2022-10-02T01:01:01.675Z,0
2022-10-02T01:02:05.266Z,0
2022-10-02T01:03:08.532Z,0
2022-10-02T01:04:11.493Z,0
2022-10-02T01:05:14.647Z,0
2022-10-02T01:06:17.085Z,0
2022-10-02T01:07:20.059Z,0
2022-10-02T01:08:23.209Z,0
2022-10-02T01:09:26.216Z,0
2022-10-02T01:10:29.024Z,0
2022-10-02T01:11:32.748Z,0
2022-10-02T01:12:36.044Z,0
2022-10-02T01:13:39.472Z,0
2022-10-02T01:14:42.693Z,0
2022-10-02T01:15:45.613Z,0
2022-10-02T01:16:48.530Z,0
2022-10-02T01:17:51.656Z,0
2022-10-02T01:18:55.398Z,0
2022-10-02T01:19:58.467Z,0
2022-10-02T01:21:01.964Z,0
2022-10-02T01:22:05.035Z,0
2022-10-02T01:23:07.920Z,0
2022-10-02T01:24:10.787Z,0
2022-10-02T01:25:13.652Z,0
2022-10-02T01:26:17.064Z,0
2022-10-02T01:27:19.873Z,0
2022-10-02T01:28:23.670Z,0
2022-10-02T01:29:27.158Z,0
2022-10-02T01:30:30.234Z,0
2022-10-02T01:31:33.723Z,0
2022-10-02T01:32:36.694Z,0
2022-10-02T01:33:39.476Z,0
2022-10-02T01:34:42.623Z,0
2022-10-02T01:35:45.743Z,0
2022-10-02T01:36:49.468Z,0
2022-10-02T01:37:52.640Z,0
2022-10-02T01:38:54.801Z,0
2022-10-02T01:39:57.717Z,0
2022-10-02T01:41:00.904Z,0
2022-10-02T01:42:04.534Z,0
2022-10-02T01:43:07.780Z,0
2022-10-02T01:44:11.267Z,0
2022-10-02T01:45:13.791Z,0
2022-10-02T01:46:16.735Z,0
2022-10-02T01:47:20.156Z,0
2022-10-02T01:48:22.869Z,0
2022-10-02T01:49:25.918Z,0
2022-10-02T01:50:28.422Z,0
2022-10-02T01:51:31.774Z,0
2022-10-02T01:52:34.962Z,0
2022-10-02T01:53:37.762Z,0
2022-10-02T01:54:41.096Z,0
2022-10-02T01:55:44.595Z,0
2022-10-02T01:56:47.771Z,0
2022-10-02T01:57:51.495Z,0
2022-10-02T01:58:55.222Z,0
2022-10-02T01:59:58.403Z,0
2022-10-02T02:01:01.566Z,0
2022-10-02T02:02:05.250Z,0
2022-10-02T02:03:08.433Z,0
2022-10-02T02:04:11.887Z,0
2022-10-02T02:05:14.759Z,0
2022-10-02T02:06:18.498Z,0
2022-10-02T02:07:22.198Z,0
2022-10-02T02:08:25.912Z,0
2022-10-02T02:09:28.780Z,0
2022-10-02T02:10:32.123Z,0
2022-10-02T02:11:35.281Z,0
2022-10-02T02:12:38.634Z,0
2022-10-02T02:13:41.459Z,0
2022-10-02T02:14:44.589Z,0
2022-10-02T02:15:47.679Z,0
2022-10-02T02:16:50.087Z,0
2022-10-02T02:17:53.564Z,0
2022-10-02T02:18:56.727Z,0
2022-10-02T02:19:59.796Z,0
2022-10-02T02:21:03.230Z,0
2022-10-02T02:22:06.491Z,0
2022-10-02T02:23:09.565Z,0
2022-10-02T02:24:12.359Z,0
2022-10-02T02:25:15.625Z,0
2022-10-02T02:26:19.420Z,0
2022-10-02T02:27:23.459Z,0
2022-10-02T02:28:26.873Z,0
2022-10-02T02:29:30.159Z,0
2022-10-02T02:30:32.476Z,0
2022-10-02T02:31:35.915Z,0
2022-10-02T02:32:39.423Z,0
2022-10-02T02:33:42.021Z,0
2022-10-02T02:34:45.199Z,0
2022-10-02T02:35:48.654Z,0
2022-10-02T02:36:51.643Z,0
2022-10-02T02:37:54.372Z,0
2022-10-02T02:38:57.322Z,0
2022-10-02T02:39:59.908Z,0
2022-10-02T02:41:02.731Z,0
2022-10-02T02:42:05.255Z,0
2022-10-02T02:43:08.846Z,0
2022-10-02T02:44:12.037Z,0
2022-10-02T02:45:15.755Z,0
2022-10-02T02:46:19.097Z,0
2022-10-02T02:47:22.642Z,0
2022-10-02T02:48:26.072Z,0
2022-10-02T02:49:29.499Z,0
2022-10-02T02:50:32.686Z,0
2022-10-02T02:51:35.950Z,0
2022-10-02T02:52:38.747Z,0
2022-10-02T02:53:41.897Z,0
2022-10-02T02:54:45.069Z,0
2022-10-02T02:55:48.223Z,0
2022-10-02T02:56:51.282Z,0
2022-10-02T02:57:55.089Z,0
2022-10-02T02:58:58.238Z,0
2022-10-02T03:00:01.612Z,0
2022-10-02T03:01:04.453Z,0
2022-10-02T03:02:08.042Z,0
2022-10-02T03:03:11.842Z,0
2022-10-02T03:04:14.358Z,0
2022-10-02T03:05:17.429Z,0
2022-10-02T03:06:20.593Z,0
2022-10-02T03:07:23.664Z,0
2022-10-02T03:08:26.628Z,0
2022-10-02T03:09:28.791Z,0
2022-10-02T03:10:31.303Z,0
2022-10-02T03:11:34.400Z,0
2022-10-02T03:12:37.555Z,0
2022-10-02T03:13:40.157Z,0
2022-10-02T03:14:43.304Z,0
2022-10-02T03:15:47.100Z,0
2022-10-02T03:16:50.255Z,0
2022-10-02T03:17:53.057Z,0
2022-10-02T03:18:55.921Z,0
2022-10-02T03:19:58.733Z,0
2022-10-02T03:21:01.536Z,0
2022-10-02T03:22:04.987Z,0
2022-10-02T03:23:07.803Z,0
2022-10-02T03:24:12.999Z,0
2022-10-02T03:25:16.142Z,0
2022-10-02T03:26:18.657Z,0
2022-10-02T03:27:21.533Z,0
2022-10-02T03:28:43.788Z,0
2022-10-02T03:30:00.429Z,0
2022-10-02T03:31:03.191Z,0
2022-10-02T03:32:06.693Z,0
2022-10-02T03:33:10.190Z,0
2022-10-02T03:34:13.410Z,0
2022-10-02T03:35:16.661Z,0
2022-10-02T03:36:19.880Z,0
2022-10-02T03:37:23.248Z,0
2022-10-02T03:38:26.110Z,0
2022-10-02T03:39:29.763Z,0
2022-10-02T03:40:32.300Z,0
2022-10-02T03:41:35.371Z,0
2022-10-02T03:42:38.369Z,0
2022-10-02T03:43:41.266Z,0
2022-10-02T03:44:44.063Z,0
2022-10-02T03:45:51.202Z,0
2022-10-02T03:46:55.619Z,0
2022-10-02T03:47:59.109Z,0
2022-10-02T03:49:02.275Z,0
2022-10-02T03:50:06.007Z,0
2022-10-02T03:51:08.716Z,0
2022-10-02T03:52:11.523Z,0
2022-10-02T03:53:14.151Z,0
2022-10-02T03:54:17.501Z,0
2022-10-02T03:55:20.106Z,0
2022-10-02T03:56:22.896Z,0
2022-10-02T03:57:26.042Z,0
2022-10-02T03:58:28.579Z,0
2022-10-02T03:59:31.739Z,0
2022-10-02T04:00:34.738Z,0
2022-10-02T04:01:37.721Z,0
2022-10-02T04:02:40.922Z,0
2022-10-02T04:03:44.424Z,0
2022-10-02T04:04:48.484Z,0
2022-10-02T04:05:51.872Z,0
2022-10-02T04:06:54.481Z,0
2022-10-02T04:07:57.301Z,0
2022-10-02T04:08:59.996Z,0
2022-10-02T04:10:03.437Z,0
2022-10-02T04:11:06.770Z,0
2022-10-02T04:12:10.196Z,0
2022-10-02T04:13:13.341Z,0
2022-10-02T04:14:16.513Z,0
2022-10-02T04:15:19.408Z,0
2022-10-02T04:16:22.619Z,0
2022-10-02T04:17:25.877Z,0
2022-10-02T04:18:29.271Z,0
2022-10-02T04:19:32.429Z,0
2022-10-02T04:20:35.311Z,0
2022-10-02T04:21:38.856Z,0
2022-10-02T04:22:42.114Z,0
2022-10-02T04:23:45.263Z,0
2022-10-02T04:24:48.987Z,0
2022-10-02T04:25:51.872Z,0
2022-10-02T04:26:55.604Z,0
2022-10-02T04:27:58.571Z,0
2022-10-02T04:29:01.828Z,0
2022-10-02T04:30:05.180Z,0
2022-10-02T04:31:07.513Z,0
2022-10-02T04:32:11.525Z,0
2022-10-02T04:33:14.451Z,0
2022-10-02T04:34:17.453Z,0
2022-10-02T04:35:21.185Z,0
2022-10-02T04:36:23.902Z,0
2022-10-02T04:37:27.662Z,0
2022-10-02T04:38:30.829Z,0
2022-10-02T04:39:34.167Z,0
2022-10-02T04:40:37.169Z,0
2022-10-02T04:41:39.957Z,0
2022-10-02T04:42:43.962Z,0
2022-10-02T04:43:47.119Z,0
2022-10-02T04:44:50.047Z,0
2022-10-02T04:45:53.394Z,4
2022-10-02T04:46:56.613Z,4
2022-10-02T04:47:58.871Z,0
2022-10-02T04:49:02.292Z,4
2022-10-02T04:50:05.369Z,4
2022-10-02T04:51:09.104Z,4
2022-10-02T04:52:12.450Z,4
2022-10-02T04:53:15.290Z,8
2022-10-02T04:54:17.858Z,8
2022-10-02T04:55:20.924Z,16
2022-10-02T04:56:24.294Z,20
2022-10-02T04:57:27.005Z,20
2022-10-02T04:58:30.474Z,24
2022-10-02T04:59:33.274Z,28
2022-10-02T05:00:35.850Z,32
2022-10-02T05:01:39.512Z,36
2022-10-02T05:02:42.625Z,44
2022-10-02T05:03:45.503Z,48
2022-10-02T05:04:49.263Z,56
2022-10-02T05:05:52.977Z,68
2022-10-02T05:06:56.152Z,80
2022-10-02T05:07:59.581Z,96
2022-10-02T05:09:02.769Z,116
2022-10-02T05:10:05.650Z,136
2022-10-02T05:11:09.372Z,156
2022-10-02T05:12:12.663Z,172
2022-10-02T05:13:16.194Z,188
2022-10-02T05:14:19.628Z,212
2022-10-02T05:15:23.314Z,236
2022-10-02T05:16:26.286Z,268
2022-10-02T05:17:30.488Z,304
2022-10-02T05:18:33.169Z,340
2022-10-02T05:19:36.072Z,384
2022-10-02T05:20:40.179Z,416
2022-10-02T05:21:43.529Z,448
2022-10-02T05:22:46.726Z,484
2022-10-02T05:23:49.242Z,520
2022-10-02T05:24:52.076Z,560
2022-10-02T05:25:54.838Z,600
2022-10-02T05:26:57.394Z,648
2022-10-02T05:28:00.908Z,684
2022-10-02T05:29:03.534Z,728
2022-10-02T05:30:06.252Z,784
2022-10-02T05:31:10.406Z,840
2022-10-02T05:32:14.125Z,896
2022-10-02T05:33:16.828Z,960
2022-10-02T05:34:19.341Z,1008
2022-10-02T05:35:22.224Z,1068
2022-10-02T05:36:25.445Z,1132
2022-10-02T05:37:28.256Z,1216
2022-10-02T05:38:31.273Z,1252
2022-10-02T05:39:34.165Z,1304
2022-10-02T05:40:37.694Z,1412
2022-10-02T05:41:40.405Z,1556
2022-10-02T05:42:43.218Z,1668
2022-10-02T05:43:46.682Z,1764
2022-10-02T05:44:49.837Z,1900
2022-10-02T05:45:52.630Z,1964
2022-10-02T05:46:55.273Z,1996
2022-10-02T05:47:58.022Z,1968
2022-10-02T05:49:00.605Z,1984
2022-10-02T05:50:03.675Z,1980
2022-10-02T05:51:06.781Z,1972
2022-10-02T05:52:10.275Z,2056
2022-10-02T05:53:13.661Z,2140
2022-10-02T05:54:16.822Z,2180
2022-10-02T05:55:19.735Z,2132
2022-10-02T05:56:22.883Z,2032
2022-10-02T05:57:26.041Z,2008
2022-10-02T05:58:30.050Z,2076
2022-10-02T05:59:32.399Z,2156
2022-10-02T06:00:35.752Z,2324
2022-10-02T06:01:39.511Z,2512
2022-10-02T06:02:43.107Z,2620
2022-10-02T06:03:45.996Z,2704
2022-10-02T06:04:48.721Z,2700
2022-10-02T06:05:51.248Z,2868
2022-10-02T06:06:54.607Z,2952
2022-10-02T06:07:58.389Z,2968
2022-10-02T06:09:01.690Z,3464
2022-10-02T06:10:05.167Z,4332
2022-10-02T06:11:08.668Z,6172
2022-10-02T06:12:11.142Z,6236
2022-10-02T06:13:14.214Z,3792
2022-10-02T06:14:17.392Z,2224
2022-10-02T06:15:20.279Z,2036
2022-10-02T06:16:22.574Z,2428
2022-10-02T06:17:26.407Z,3116
2022-10-02T06:18:28.932Z,3444
2022-10-02T06:19:31.736Z,4052
2022-10-02T06:20:35.468Z,4320
2022-10-02T06:21:39.132Z,2968
2022-10-02T06:22:42.771Z,2068
2022-10-02T06:23:46.365Z,1704
2022-10-02T06:24:49.531Z,1496
2022-10-02T06:25:52.626Z,956
2022-10-02T06:26:55.506Z,772
2022-10-02T06:27:58.793Z,776
2022-10-02T06:29:01.799Z,1236
2022-10-02T06:30:04.915Z,1392
2022-10-02T06:31:07.766Z,2056
2022-10-02T06:32:10.584Z,2276
2022-10-02T06:33:13.486Z,2752
2022-10-02T06:34:17.221Z,3044
2022-10-02T06:35:20.767Z,3208
2022-10-02T06:36:24.043Z,2400
2022-10-02T06:37:27.777Z,1508
2022-10-02T06:38:30.591Z,1340
2022-10-02T06:39:33.750Z,1232
2022-10-02T06:40:37.149Z,1244
2022-10-02T06:41:40.070Z,1312
2022-10-02T06:42:43.715Z,1248
2022-10-02T06:43:47.491Z,1156
2022-10-02T06:44:50.567Z,1044
2022-10-02T06:45:54.116Z,980
2022-10-02T06:46:57.544Z,1644
2022-10-02T06:48:01.179Z,2076
2022-10-02T06:49:03.984Z,2100
2022-10-02T06:50:07.794Z,1740
2022-10-02T06:51:10.601Z,1372
2022-10-02T06:52:13.857Z,1064
2022-10-02T06:53:16.105Z,832
2022-10-02T06:54:19.480Z,852
2022-10-02T06:55:23.062Z,1228
2022-10-02T06:56:26.074Z,1432
2022-10-02T06:57:29.968Z,1632
2022-10-02T06:58:33.045Z,2056
2022-10-02T06:59:35.330Z,2568
2022-10-02T07:00:38.277Z,3320
2022-10-02T07:01:42.885Z,4012
2022-10-02T07:02:46.450Z,4552
2022-10-02T07:03:49.058Z,5408
2022-10-02T07:04:52.441Z,6640
2022-10-02T07:05:54.136Z,7536
2022-10-02T07:06:57.141Z,9124
2022-10-02T07:08:00.515Z,10076
2022-10-02T07:09:03.231Z,10596
2022-10-02T07:10:06.250Z,11012
2022-10-02T07:11:09.827Z,10740
2022-10-02T07:12:12.923Z,9840
2022-10-02T07:13:16.002Z,9572
2022-10-02T07:14:19.459Z,10032
2022-10-02T07:15:23.172Z,9868
2022-10-02T07:16:25.741Z,9792
2022-10-02T07:17:28.975Z,9076
2022-10-02T07:18:31.991Z,8120
2022-10-02T07:19:35.088Z,6868
2022-10-02T07:20:37.602Z,5864
2022-10-02T07:21:40.698Z,5080
2022-10-02T07:22:45.537Z,4588
2022-10-02T07:23:49.475Z,4368
2022-10-02T07:24:52.851Z,4480
2022-10-02T07:25:55.086Z,4624
2022-10-02T07:26:58.879Z,4860
2022-10-02T07:28:01.727Z,4956
2022-10-02T07:29:05.252Z,5180
2022-10-02T07:30:08.328Z,5120
2022-10-02T07:31:11.184Z,4588
2022-10-02T07:32:14.248Z,4152
2022-10-02T07:33:17.416Z,3604
2022-10-02T07:34:20.867Z,2960
2022-10-02T07:35:24.144Z,2164
2022-10-02T07:36:27.216Z,1960
2022-10-02T07:37:30.676Z,2244
2022-10-02T07:38:33.549Z,2456
2022-10-02T07:39:36.720Z,1688
2022-10-02T07:40:39.321Z,1276
2022-10-02T07:41:42.506Z,1172
2022-10-02T07:42:45.376Z,1136
2022-10-02T07:43:48.256Z,904
2022-10-02T07:44:51.518Z,728
2022-10-02T07:45:54.576Z,692
2022-10-02T07:46:58.541Z,908
2022-10-02T07:48:01.508Z,1372
2022-10-02T07:49:03.781Z,1640
2022-10-02T07:50:06.139Z,1396
2022-10-02T07:51:08.839Z,1356
2022-10-02T07:52:11.829Z,1692
2022-10-02T07:53:14.925Z,1920
2022-10-02T07:54:18.673Z,2032
2022-10-02T07:55:22.450Z,2256
2022-10-02T07:56:25.827Z,2348
2022-10-02T07:57:28.938Z,2572
2022-10-02T07:58:32.445Z,3076
2022-10-02T07:59:35.619Z,3612
2022-10-02T08:00:38.819Z,4040
2022-10-02T08:01:41.147Z,4300
2022-10-02T08:02:43.917Z,4240
2022-10-02T08:03:46.510Z,4072
2022-10-02T08:04:49.031Z,3560
2022-10-02T08:05:51.952Z,3276
2022-10-02T08:06:55.296Z,3392
2022-10-02T08:07:58.259Z,4060
2022-10-02T08:09:01.334Z,4896
2022-10-02T08:10:04.781Z,5328
2022-10-02T08:11:07.662Z,6692
2022-10-02T08:12:10.760Z,7380
2022-10-02T08:13:13.004Z,7424
2022-10-02T08:14:16.763Z,7364
2022-10-02T08:15:19.878Z,7400
2022-10-02T08:16:23.516Z,6876
2022-10-02T08:17:27.620Z,6748
2022-10-02T08:18:34.486Z,6604
2022-10-02T08:19:39.070Z,6044
2022-10-02T08:20:42.789Z,6788
2022-10-02T08:21:45.768Z,7364
2022-10-02T08:22:48.581Z,8264
2022-10-02T08:23:51.289Z,8748
2022-10-02T08:24:54.009Z,9232
2022-10-02T08:25:57.397Z,9720
2022-10-02T08:27:00.119Z,10352
2022-10-02T08:28:03.183Z,10440
2022-10-02T08:29:07.076Z,10064
2022-10-02T08:30:10.925Z,9812
2022-10-02T08:31:14.114Z,10368
2022-10-02T08:32:17.109Z,12272
2022-10-02T08:33:19.708Z,14692
2022-10-02T08:34:23.207Z,14240
2022-10-02T08:35:26.361Z,14080
2022-10-02T08:36:29.431Z,15892
2022-10-02T08:37:32.830Z,17204
2022-10-02T08:38:36.008Z,17868
2022-10-02T08:39:38.721Z,18240
2022-10-02T08:40:42.555Z,21120
2022-10-02T08:41:46.007Z,24448
2022-10-02T08:42:48.888Z,26112
2022-10-02T08:43:52.706Z,25440
2022-10-02T08:44:56.343Z,27904
2022-10-02T08:45:59.502Z,23776
2022-10-02T08:47:03.119Z,26784
2022-10-02T08:48:06.843Z,27360
2022-10-02T08:49:09.372Z,27552
2022-10-02T08:50:12.219Z,28352
2022-10-02T08:51:15.400Z,26496
2022-10-02T08:52:18.665Z,23936
2022-10-02T08:53:21.735Z,27232
2022-10-02T08:54:24.620Z,32576
2022-10-02T08:55:28.072Z,33312
2022-10-02T08:56:31.145Z,24960
2022-10-02T08:57:34.007Z,34496
2022-10-02T08:58:37.185Z,90304
2022-10-02T08:59:40.366Z,70496
2022-10-02T09:00:43.704Z,61824
2022-10-02T09:01:47.014Z,80096
2022-10-02T09:02:50.288Z,96160
2022-10-02T09:03:53.360Z,44064
2022-10-02T09:04:56.887Z,35968
2022-10-02T09:05:59.861Z,27264
2022-10-02T09:07:02.677Z,31264
2022-10-02T09:08:05.553Z,105408
2022-10-02T09:09:08.743Z,108096
2022-10-02T09:10:11.545Z,89600
2022-10-02T09:11:14.631Z,106656
2022-10-02T09:12:17.627Z,64352
2022-10-02T09:13:20.434Z,85824
2022-10-02T09:14:23.332Z,67904
2022-10-02T09:15:26.585Z,65024
2022-10-02T09:16:29.626Z,67392
2022-10-02T09:17:34.226Z,30144
2022-10-02T09:18:37.242Z,28512
2022-10-02T09:19:40.130Z,25184
2022-10-02T09:20:43.566Z,26752
2022-10-02T09:21:46.792Z,29280
2022-10-02T09:22:49.896Z,66400
2022-10-02T09:23:53.075Z,35968
2022-10-02T09:24:56.244Z,97792
2022-10-02T09:25:59.886Z,108896
2022-10-02T09:27:03.037Z,84192
2022-10-02T09:28:06.190Z,35136
2022-10-02T09:29:09.851Z,35904
2022-10-02T09:30:12.840Z,116736
2022-10-02T09:31:16.471Z,42944
2022-10-02T09:32:20.112Z,46528
2022-10-02T09:33:23.976Z,54752
2022-10-02T09:34:27.537Z,37024
2022-10-02T09:35:30.777Z,21568
2022-10-02T09:36:34.436Z,22720
2022-10-02T09:37:40.458Z,32576
2022-10-02T09:38:43.069Z,36544
2022-10-02T09:39:46.226Z,28768
2022-10-02T09:40:49.118Z,14524
2022-10-02T09:41:51.800Z,18296
2022-10-02T09:42:54.607Z,15892
2022-10-02T09:43:57.787Z,62592
2022-10-02T09:45:01.901Z,26464
2022-10-02T09:46:05.029Z,32832
2022-10-02T09:47:08.456Z,114208
2022-10-02T09:48:11.461Z,57056
2022-10-02T09:49:15.269Z,86208
2022-10-02T09:50:18.439Z,112896
2022-10-02T09:51:21.877Z,84704
2022-10-02T09:52:24.426Z,113536
2022-10-02T09:53:28.191Z,109088
2022-10-02T09:54:31.072Z,106144
2022-10-02T09:55:34.520Z,109440
2022-10-02T09:56:38.269Z,107584
2022-10-02T09:57:42.181Z,113824
2022-10-02T09:58:45.263Z,112672
2022-10-02T09:59:48.812Z,107360
2022-10-02T10:00:52.050Z,119648
2022-10-02T10:01:55.603Z,118048
2022-10-02T10:02:59.321Z,41952
2022-10-02T10:04:03.053Z,117312
2022-10-02T10:05:07.117Z,65088
2022-10-02T10:06:10.748Z,117120
2022-10-02T10:07:15.386Z,136800
2022-10-02T10:08:22.189Z,134816
2022-10-02T10:09:25.317Z,130816
2022-10-02T10:10:27.868Z,22464
2022-10-02T10:11:30.392Z,129056
2022-10-02T10:12:33.776Z,63808
2022-10-02T10:13:36.763Z,54752
2022-10-02T10:14:39.850Z,31712
2022-10-02T10:15:42.660Z,132320
2022-10-02T10:16:46.423Z,126752
2022-10-02T10:17:50.699Z,108032
2022-10-02T10:18:53.972Z,104160
2022-10-02T10:19:56.417Z,110176
2022-10-02T10:20:59.924Z,46464
2022-10-02T10:22:02.554Z,83616
2022-10-02T10:23:05.988Z,77536
2022-10-02T10:24:09.370Z,45664
2022-10-02T10:25:12.560Z,44640
2022-10-02T10:26:15.569Z,43424
2022-10-02T10:27:18.095Z,40320
2022-10-02T10:28:21.320Z,110240
2022-10-02T10:29:24.720Z,51904
2022-10-02T10:30:27.251Z,39520
2022-10-02T10:31:30.063Z,35040
2022-10-02T10:32:33.520Z,44416
2022-10-02T10:33:36.891Z,34016
2022-10-02T10:34:39.704Z,30016
2022-10-02T10:35:42.670Z,38528
2022-10-02T10:36:46.879Z,73152
2022-10-02T10:37:49.942Z,128096
2022-10-02T10:38:53.028Z,130048
2022-10-02T10:39:56.390Z,134048
2022-10-02T10:40:59.928Z,134368
2022-10-02T10:42:02.548Z,34048
2022-10-02T10:43:08.715Z,125216
2022-10-02T10:44:19.068Z,139136
2022-10-02T10:45:21.668Z,137664
2022-10-02T10:46:25.565Z,133056
2022-10-02T10:47:28.727Z,130176
2022-10-02T10:48:31.358Z,130016
2022-10-02T10:49:34.545Z,129760
2022-10-02T10:50:37.063Z,131712
2022-10-02T10:51:40.112Z,137952
2022-10-02T10:52:43.378Z,75904
2022-10-02T10:53:46.380Z,132608
2022-10-02T10:54:49.994Z,135424
2022-10-02T10:55:52.524Z,138752
2022-10-02T10:56:56.115Z,98944
2022-10-02T10:57:58.650Z,132928
2022-10-02T10:59:01.892Z,128256
2022-10-02T11:00:04.510Z,127072
2022-10-02T11:01:07.980Z,129632
2022-10-02T11:02:11.340Z,135616
2022-10-02T11:03:14.597Z,136672
2022-10-02T11:04:17.502Z,135104
2022-10-02T11:05:20.667Z,28096
2022-10-02T11:06:23.826Z,37888
2022-10-02T11:07:27.192Z,147008
2022-10-02T11:08:30.750Z,102208
2022-10-02T11:09:34.467Z,28384
2022-10-02T11:10:36.720Z,143232
2022-10-02T11:11:39.960Z,137056
2022-10-02T11:12:43.982Z,29088
2022-10-02T11:13:46.593Z,18560
2022-10-02T11:14:50.427Z,18816
2022-10-02T11:15:53.518Z,103360
2022-10-02T11:16:56.685Z,93120
2022-10-02T11:17:59.769Z,22752
2022-10-02T11:19:03.475Z,128064
2022-10-02T11:20:06.834Z,115616
2022-10-02T11:21:09.828Z,125280
2022-10-02T11:22:13.099Z,123968
2022-10-02T11:23:15.881Z,124928
2022-10-02T11:24:19.101Z,130176
2022-10-02T11:25:21.913Z,128224
2022-10-02T11:26:25.356Z,35296
2022-10-02T11:27:27.966Z,34432
2022-10-02T11:28:31.936Z,129856
2022-10-02T11:29:35.687Z,20096
2022-10-02T11:30:41.665Z,128384
2022-10-02T11:31:44.742Z,49888
2022-10-02T11:32:48.330Z,26112
2022-10-02T11:33:51.844Z,31520
2022-10-02T11:34:54.092Z,27296
2022-10-02T11:35:57.637Z,28832
2022-10-02T11:37:00.813Z,127936
2022-10-02T11:38:04.220Z,31360
2022-10-02T11:39:06.932Z,28928
2022-10-02T11:40:10.169Z,14124
2022-10-02T11:41:13.086Z,53824
2022-10-02T11:42:17.106Z,15980
2022-10-02T11:43:20.187Z,14176
2022-10-02T11:44:22.817Z,16808
2022-10-02T11:45:26.014Z,125984
2022-10-02T11:46:29.474Z,121792
2022-10-02T11:47:32.411Z,119840
2022-10-02T11:48:36.130Z,117056
2022-10-02T11:49:38.651Z,98432
2022-10-02T11:50:41.450Z,114144
2022-10-02T11:51:43.707Z,114144
2022-10-02T11:52:48.393Z,113600
2022-10-02T11:53:51.315Z,79872
2022-10-02T11:54:54.371Z,114496
2022-10-02T11:55:57.933Z,115488
2022-10-02T11:57:01.669Z,105248
2022-10-02T11:58:05.246Z,110176
2022-10-02T11:59:08.395Z,105984
2022-10-02T12:00:11.438Z,104960
2022-10-02T12:01:14.251Z,105376
2022-10-02T12:02:17.038Z,105408
2022-10-02T12:03:20.636Z,103296
2022-10-02T12:04:24.434Z,102880
2022-10-02T12:05:27.182Z,103904
2022-10-02T12:06:30.458Z,13248
2022-10-02T12:07:33.914Z,106144
2022-10-02T12:08:37.543Z,107648
2022-10-02T12:09:40.546Z,110912
2022-10-02T12:10:43.709Z,112960
2022-10-02T12:11:47.362Z,109056
2022-10-02T12:12:49.798Z,105376
2022-10-02T12:13:52.990Z,105504
2022-10-02T12:14:55.719Z,105728
2022-10-02T12:15:58.954Z,82208
2022-10-02T12:17:02.057Z,73408
2022-10-02T12:18:05.057Z,47392
2022-10-02T12:19:08.438Z,63904
2022-10-02T12:20:11.342Z,27104
2022-10-02T12:21:15.166Z,18656
2022-10-02T12:22:18.170Z,35392
2022-10-02T12:23:21.163Z,61152
2022-10-02T12:24:24.797Z,26144
2022-10-02T12:25:28.811Z,23744
2022-10-02T12:26:31.608Z,22272
2022-10-02T12:27:35.047Z,19456
2022-10-02T12:28:38.235Z,20800
2022-10-02T12:29:41.155Z,16884
2022-10-02T12:30:45.494Z,13580
2022-10-02T12:31:48.856Z,19424
2022-10-02T12:32:52.077Z,12012
2022-10-02T12:33:56.707Z,10504
2022-10-02T12:35:00.324Z,13368
2022-10-02T12:36:02.869Z,13808
2022-10-02T12:37:05.975Z,14968
2022-10-02T12:38:08.780Z,22528
2022-10-02T12:39:11.787Z,18108
2022-10-02T12:40:15.255Z,16656
2022-10-02T12:41:17.702Z,16500
2022-10-02T12:42:20.553Z,22016
2022-10-02T12:43:23.690Z,18380
2022-10-02T12:44:27.135Z,14992
2022-10-02T12:45:30.340Z,15256
2022-10-02T12:46:33.095Z,13920
2022-10-02T12:47:36.509Z,11484
2022-10-02T12:48:39.660Z,14680
2022-10-02T12:49:42.215Z,18144
2022-10-02T12:50:45.305Z,14576
2022-10-02T12:51:47.566Z,12512
2022-10-02T12:52:50.084Z,11312
2022-10-02T12:53:52.555Z,13764
2022-10-02T12:54:55.370Z,12124
2022-10-02T12:55:58.836Z,12900
2022-10-02T12:57:01.920Z,10852
2022-10-02T12:58:05.657Z,10948
2022-10-02T12:59:09.437Z,10452
2022-10-02T13:00:12.775Z,15308
2022-10-02T13:01:16.243Z,13360
2022-10-02T13:02:20.184Z,12344
2022-10-02T13:04:03.510Z,17056
2022-10-02T13:05:06.401Z,17952
2022-10-02T13:06:09.158Z,17604
2022-10-02T13:07:12.599Z,16576
2022-10-02T13:08:15.256Z,14032
2022-10-02T13:09:18.399Z,39008
2022-10-02T13:10:21.207Z,10032
2022-10-02T13:11:24.368Z,9880
2022-10-02T13:12:27.186Z,11408
2022-10-02T13:13:29.720Z,20128
2022-10-02T13:14:32.684Z,43360
2022-10-02T13:15:35.054Z,9116
2022-10-02T13:16:38.251Z,23360
2022-10-02T13:17:41.224Z,35328
2022-10-02T13:18:44.090Z,14132
2022-10-02T13:19:47.385Z,18912
2022-10-02T13:20:51.014Z,28320
2022-10-02T13:21:54.121Z,19168
2022-10-02T13:22:56.448Z,35200
2022-10-02T13:23:59.169Z,37920
2022-10-02T13:25:02.904Z,33952
2022-10-02T13:26:05.639Z,16264
2022-10-02T13:27:08.191Z,13520
2022-10-02T13:28:11.557Z,22560
2022-10-02T13:29:15.204Z,13976
2022-10-02T13:30:18.500Z,12480
2022-10-02T13:31:21.465Z,15912
2022-10-02T13:32:25.257Z,10192
2022-10-02T13:33:27.808Z,8392
2022-10-02T13:34:34.093Z,9908
2022-10-02T13:35:41.364Z,10360
2022-10-02T13:36:44.086Z,8600
2022-10-02T13:37:46.827Z,8624
2022-10-02T13:38:49.714Z,9108
2022-10-02T13:39:52.161Z,17504
2022-10-02T13:40:55.235Z,14112
2022-10-02T13:41:58.965Z,10900
2022-10-02T13:43:01.843Z,12236
2022-10-02T13:44:04.809Z,14772
2022-10-02T13:45:07.621Z,14816
2022-10-02T13:46:11.394Z,14824
2022-10-02T13:47:14.975Z,13692
2022-10-02T13:48:18.545Z,14448
2022-10-02T13:49:21.444Z,15192
2022-10-02T13:50:24.833Z,20192
2022-10-02T13:51:27.953Z,17132
2022-10-02T13:52:30.782Z,16480
2022-10-02T13:53:34.001Z,16596
2022-10-02T13:54:36.065Z,15828
2022-10-02T13:55:39.259Z,12016
2022-10-02T13:56:42.071Z,10560
2022-10-02T13:57:44.678Z,9016
2022-10-02T13:58:48.339Z,8944
2022-10-02T13:59:51.137Z,8128
2022-10-02T14:00:54.353Z,9512
2022-10-02T14:01:58.501Z,11788
2022-10-02T14:03:01.059Z,8416
2022-10-02T14:04:04.814Z,7920
2022-10-02T14:05:07.988Z,7940
2022-10-02T14:06:10.933Z,10976
2022-10-02T14:07:14.213Z,7168
2022-10-02T14:08:17.295Z,7640
2022-10-02T14:09:20.496Z,8996
2022-10-02T14:10:23.226Z,7008
2022-10-02T14:11:26.187Z,6628
2022-10-02T14:12:29.934Z,6388
2022-10-02T14:13:32.564Z,7804
2022-10-02T14:14:35.453Z,15368
2022-10-02T14:15:38.334Z,22592
2022-10-02T14:16:41.570Z,8144
2022-10-02T14:17:45.994Z,25664
2022-10-02T14:18:49.195Z,7808
2022-10-02T14:19:52.659Z,7568